sensor_id;sensor_type;location;lat;lon;timestamp;P1;durP1;ratioP1;P2;durP2;ratioP2
23346;SDS011;36852;45.466;11.066;2023-07-28T00:00:12;4.03;;;1.47;;
23346;SDS011;36852;45.466;11.066;2023-07-28T00:02:43;5.53;;;1.67;;
23346;SDS011;36852;45.466;11.066;2023-07-28T00:05:11;6.40;;;1.62;;
23346;SDS011;36852;45.466;11.066;2023-07-28T00:07:38;3.55;;;1.50;;
23346;SDS011;36852;45.466;11.066;2023-07-28T00:10:06;9.25;;;2.27;;
23346;SDS011;36852;45.466;11.066;2023-07-28T00:12:35;3.87;;;1.40;;
23346;SDS011;36852;45.466;11.066;2023-07-28T00:15:02;3.65;;;1.60;;
23346;SDS011;36852;45.466;11.066;2023-07-28T00:17:31;6.37;;;1.40;;
23346;SDS011;36852;45.466;11.066;2023-07-28T00:19:59;4.70;;;1.20;;
23346;SDS011;36852;45.466;11.066;2023-07-28T00:22:29;4.35;;;1.20;;
23346;SDS011;36852;45.466;11.066;2023-07-28T00:24:57;3.80;;;1.70;;
23346;SDS011;36852;45.466;11.066;2023-07-28T00:27:29;6.70;;;1.52;;
23346;SDS011;36852;45.466;11.066;2023-07-28T00:29:57;5.87;;;1.62;;
23346;SDS011;36852;45.466;11.066;2023-07-28T00:32:25;5.65;;;1.37;;
23346;SDS011;36852;45.466;11.066;2023-07-28T00:34:52;1.72;;;1.30;;
23346;SDS011;36852;45.466;11.066;2023-07-28T00:37:20;3.90;;;1.45;;
23346;SDS011;36852;45.466;11.066;2023-07-28T00:39:48;4.25;;;1.40;;
23346;SDS011;36852;45.466;11.066;2023-07-28T00:42:15;4.62;;;1.32;;
23346;SDS011;36852;45.466;11.066;2023-07-28T00:44:43;3.80;;;1.55;;
23346;SDS011;36852;45.466;11.066;2023-07-28T00:47:12;5.85;;;1.57;;
23346;SDS011;36852;45.466;11.066;2023-07-28T00:49:40;3.58;;;1.30;;
23346;SDS011;36852;45.466;11.066;2023-07-28T00:52:08;4.42;;;1.32;;
23346;SDS011;36852;45.466;11.066;2023-07-28T00:54:36;4.08;;;1.40;;
23346;SDS011;36852;45.466;11.066;2023-07-28T00:57:04;4.53;;;1.80;;
23346;SDS011;36852;45.466;11.066;2023-07-28T00:59:34;3.65;;;1.42;;
23346;SDS011;36852;45.466;11.066;2023-07-28T01:02:02;4.33;;;1.30;;
23346;SDS011;36852;45.466;11.066;2023-07-28T01:04:30;3.15;;;1.75;;
23346;SDS011;36852;45.466;11.066;2023-07-28T01:07:01;4.12;;;1.40;;
23346;SDS011;36852;45.466;11.066;2023-07-28T01:09:41;3.52;;;1.30;;
23346;SDS011;36852;45.466;11.066;2023-07-28T01:12:13;2.22;;;1.42;;
23346;SDS011;36852;45.466;11.066;2023-07-28T01:14:41;2.45;;;1.27;;
23346;SDS011;36852;45.466;11.066;2023-07-28T01:17:08;2.35;;;1.90;;
23346;SDS011;36852;45.466;11.066;2023-07-28T01:19:36;3.35;;;1.37;;
23346;SDS011;36852;45.466;11.066;2023-07-28T01:24:53;7.03;;;1.40;;
23346;SDS011;36852;45.466;11.066;2023-07-28T01:27:25;2.00;;;1.20;;
23346;SDS011;36852;45.466;11.066;2023-07-28T01:29:53;2.77;;;1.57;;
23346;SDS011;36852;45.466;11.066;2023-07-28T01:32:21;3.00;;;1.27;;
23346;SDS011;36852;45.466;11.066;2023-07-28T01:34:51;4.05;;;1.40;;
23346;SDS011;36852;45.466;11.066;2023-07-28T01:37:19;4.65;;;1.95;;
23346;SDS011;36852;45.466;11.066;2023-07-28T01:39:47;1.62;;;1.50;;
23346;SDS011;36852;45.466;11.066;2023-07-28T01:42:14;4.20;;;1.80;;
23346;SDS011;36852;45.466;11.066;2023-07-28T01:44:43;1.70;;;1.35;;
23346;SDS011;36852;45.466;11.066;2023-07-28T01:47:11;5.22;;;1.30;;
23346;SDS011;36852;45.466;11.066;2023-07-28T01:49:39;2.62;;;1.42;;
23346;SDS011;36852;45.466;11.066;2023-07-28T01:52:08;3.08;;;1.20;;
23346;SDS011;36852;45.466;11.066;2023-07-28T01:54:37;2.77;;;1.47;;
23346;SDS011;36852;45.466;11.066;2023-07-28T01:57:05;2.35;;;1.22;;
23346;SDS011;36852;45.466;11.066;2023-07-28T01:59:33;2.80;;;1.37;;
23346;SDS011;36852;45.466;11.066;2023-07-28T02:02:01;2.42;;;1.00;;
23346;SDS011;36852;45.466;11.066;2023-07-28T02:04:29;3.05;;;1.50;;
23346;SDS011;36852;45.466;11.066;2023-07-28T02:06:56;2.30;;;1.30;;
23346;SDS011;36852;45.466;11.066;2023-07-28T02:09:24;2.40;;;1.20;;
23346;SDS011;36852;45.466;11.066;2023-07-28T02:11:52;3.05;;;1.22;;
23346;SDS011;36852;45.466;11.066;2023-07-28T02:14:20;2.75;;;1.35;;
23346;SDS011;36852;45.466;11.066;2023-07-28T02:16:47;2.10;;;1.55;;
23346;SDS011;36852;45.466;11.066;2023-07-28T02:19:15;2.75;;;1.45;;
23346;SDS011;36852;45.466;11.066;2023-07-28T02:21:43;3.47;;;1.30;;
23346;SDS011;36852;45.466;11.066;2023-07-28T02:24:10;5.65;;;1.57;;
23346;SDS011;36852;45.466;11.066;2023-07-28T02:26:38;2.15;;;1.40;;
23346;SDS011;36852;45.466;11.066;2023-07-28T02:29:10;1.85;;;1.30;;
23346;SDS011;36852;45.466;11.066;2023-07-28T02:31:38;4.37;;;1.35;;
23346;SDS011;36852;45.466;11.066;2023-07-28T02:34:05;1.72;;;1.17;;
23346;SDS011;36852;45.466;11.066;2023-07-28T02:36:33;3.67;;;1.35;;
23346;SDS011;36852;45.466;11.066;2023-07-28T02:39:01;5.70;;;1.30;;
23346;SDS011;36852;45.466;11.066;2023-07-28T02:41:29;2.83;;;1.47;;
23346;SDS011;36852;45.466;11.066;2023-07-28T02:43:57;1.60;;;1.30;;
23346;SDS011;36852;45.466;11.066;2023-07-28T02:46:24;3.22;;;1.37;;
23346;SDS011;36852;45.466;11.066;2023-07-28T02:48:53;2.25;;;1.50;;
23346;SDS011;36852;45.466;11.066;2023-07-28T02:51:21;2.62;;;1.47;;
23346;SDS011;36852;45.466;11.066;2023-07-28T02:53:48;2.65;;;1.30;;
23346;SDS011;36852;45.466;11.066;2023-07-28T02:56:19;5.70;;;1.57;;
23346;SDS011;36852;45.466;11.066;2023-07-28T02:58:48;2.47;;;1.47;;
23346;SDS011;36852;45.466;11.066;2023-07-28T03:01:16;3.40;;;1.45;;
23346;SDS011;36852;45.466;11.066;2023-07-28T03:03:44;1.70;;;1.25;;
23346;SDS011;36852;45.466;11.066;2023-07-28T03:06:12;2.25;;;1.57;;
23346;SDS011;36852;45.466;11.066;2023-07-28T03:08:41;1.50;;;1.10;;
23346;SDS011;36852;45.466;11.066;2023-07-28T03:11:11;2.95;;;1.30;;
23346;SDS011;36852;45.466;11.066;2023-07-28T03:13:39;2.47;;;1.62;;
23346;SDS011;36852;45.466;11.066;2023-07-28T03:16:07;2.67;;;1.25;;
23346;SDS011;36852;45.466;11.066;2023-07-28T03:18:36;5.17;;;1.60;;
23346;SDS011;36852;45.466;11.066;2023-07-28T03:21:03;5.28;;;1.67;;
23346;SDS011;36852;45.466;11.066;2023-07-28T03:23:31;1.55;;;1.30;;
23346;SDS011;36852;45.466;11.066;2023-07-28T03:25:59;8.03;;;2.00;;
23346;SDS011;36852;45.466;11.066;2023-07-28T03:28:27;3.42;;;1.40;;
23346;SDS011;36852;45.466;11.066;2023-07-28T03:30:55;2.58;;;1.22;;
23346;SDS011;36852;45.466;11.066;2023-07-28T03:33:23;3.55;;;1.37;;
23346;SDS011;36852;45.466;11.066;2023-07-28T03:35:51;4.33;;;1.75;;
23346;SDS011;36852;45.466;11.066;2023-07-28T03:38:19;3.47;;;1.07;;
23346;SDS011;36852;45.466;11.066;2023-07-28T03:40:47;5.58;;;1.37;;
23346;SDS011;36852;45.466;11.066;2023-07-28T03:43:15;7.90;;;1.72;;
23346;SDS011;36852;45.466;11.066;2023-07-28T03:45:43;1.45;;;1.10;;
23346;SDS011;36852;45.466;11.066;2023-07-28T03:48:12;6.80;;;1.70;;
23346;SDS011;36852;45.466;11.066;2023-07-28T03:50:43;3.62;;;1.60;;
23346;SDS011;36852;45.466;11.066;2023-07-28T03:53:11;1.87;;;1.02;;
23346;SDS011;36852;45.466;11.066;2023-07-28T03:55:39;8.40;;;1.70;;
23346;SDS011;36852;45.466;11.066;2023-07-28T03:58:06;3.42;;;1.45;;
23346;SDS011;36852;45.466;11.066;2023-07-28T04:00:34;3.83;;;1.37;;
23346;SDS011;36852;45.466;11.066;2023-07-28T04:03:01;5.92;;;1.57;;
23346;SDS011;36852;45.466;11.066;2023-07-28T04:05:29;6.72;;;1.45;;
23346;SDS011;36852;45.466;11.066;2023-07-28T04:07:57;6.95;;;2.45;;
23346;SDS011;36852;45.466;11.066;2023-07-28T04:10:25;4.10;;;2.10;;
23346;SDS011;36852;45.466;11.066;2023-07-28T04:12:53;6.25;;;2.40;;
23346;SDS011;36852;45.466;11.066;2023-07-28T04:15:21;5.15;;;2.70;;
23346;SDS011;36852;45.466;11.066;2023-07-28T04:17:52;7.00;;;2.70;;
23346;SDS011;36852;45.466;11.066;2023-07-28T04:20:20;5.22;;;2.35;;
23346;SDS011;36852;45.466;11.066;2023-07-28T04:22:48;5.17;;;2.65;;
23346;SDS011;36852;45.466;11.066;2023-07-28T04:25:16;5.80;;;2.50;;
23346;SDS011;36852;45.466;11.066;2023-07-28T04:27:45;7.05;;;2.67;;
23346;SDS011;36852;45.466;11.066;2023-07-28T04:30:13;3.50;;;2.27;;
23346;SDS011;36852;45.466;11.066;2023-07-28T04:32:41;4.12;;;2.08;;
23346;SDS011;36852;45.466;11.066;2023-07-28T04:35:11;5.40;;;2.05;;
23346;SDS011;36852;45.466;11.066;2023-07-28T04:37:40;4.92;;;1.72;;
23346;SDS011;36852;45.466;11.066;2023-07-28T04:40:10;4.25;;;2.00;;
23346;SDS011;36852;45.466;11.066;2023-07-28T04:42:41;5.47;;;1.60;;
23346;SDS011;36852;45.466;11.066;2023-07-28T04:45:10;3.92;;;1.50;;
23346;SDS011;36852;45.466;11.066;2023-07-28T04:47:37;2.67;;;2.00;;
23346;SDS011;36852;45.466;11.066;2023-07-28T04:50:06;4.92;;;2.02;;
23346;SDS011;36852;45.466;11.066;2023-07-28T04:52:55;4.22;;;2.60;;
23346;SDS011;36852;45.466;11.066;2023-07-28T04:55:43;8.53;;;1.98;;
23346;SDS011;36852;45.466;11.066;2023-07-28T04:58:10;4.37;;;1.60;;
23346;SDS011;36852;45.466;11.066;2023-07-28T05:00:43;7.03;;;1.92;;
23346;SDS011;36852;45.466;11.066;2023-07-28T05:03:14;6.08;;;1.87;;
23346;SDS011;36852;45.466;11.066;2023-07-28T05:05:47;4.05;;;1.90;;
23346;SDS011;36852;45.466;11.066;2023-07-28T05:08:15;4.75;;;1.65;;
23346;SDS011;36852;45.466;11.066;2023-07-28T05:10:43;4.53;;;1.52;;
23346;SDS011;36852;45.466;11.066;2023-07-28T05:13:11;7.70;;;2.10;;
23346;SDS011;36852;45.466;11.066;2023-07-28T05:15:41;1.57;;;1.22;;
23346;SDS011;36852;45.466;11.066;2023-07-28T05:18:10;5.22;;;1.57;;
23346;SDS011;36852;45.466;11.066;2023-07-28T05:20:40;5.33;;;1.70;;
23346;SDS011;36852;45.466;11.066;2023-07-28T05:23:09;3.15;;;1.80;;
23346;SDS011;36852;45.466;11.066;2023-07-28T05:25:37;7.75;;;1.95;;
23346;SDS011;36852;45.466;11.066;2023-07-28T05:28:06;5.97;;;2.00;;
23346;SDS011;36852;45.466;11.066;2023-07-28T05:30:35;6.78;;;2.02;;
23346;SDS011;36852;45.466;11.066;2023-07-28T05:33:02;5.42;;;1.98;;
23346;SDS011;36852;45.466;11.066;2023-07-28T05:35:32;7.65;;;1.85;;
23346;SDS011;36852;45.466;11.066;2023-07-28T05:38:00;6.60;;;2.12;;
23346;SDS011;36852;45.466;11.066;2023-07-28T05:40:28;7.97;;;2.37;;
23346;SDS011;36852;45.466;11.066;2023-07-28T05:42:56;12.45;;;2.80;;
23346;SDS011;36852;45.466;11.066;2023-07-28T05:45:23;5.22;;;1.60;;
23346;SDS011;36852;45.466;11.066;2023-07-28T05:47:51;4.45;;;2.02;;
23346;SDS011;36852;45.466;11.066;2023-07-28T05:50:18;8.15;;;1.60;;
23346;SDS011;36852;45.466;11.066;2023-07-28T05:52:46;9.63;;;1.95;;
23346;SDS011;36852;45.466;11.066;2023-07-28T05:55:14;6.28;;;2.00;;
23346;SDS011;36852;45.466;11.066;2023-07-28T05:57:42;1.90;;;1.40;;
23346;SDS011;36852;45.466;11.066;2023-07-28T06:00:10;4.22;;;1.85;;
23346;SDS011;36852;45.466;11.066;2023-07-28T06:02:41;6.42;;;1.95;;
23346;SDS011;36852;45.466;11.066;2023-07-28T06:05:11;5.95;;;1.37;;
23346;SDS011;36852;45.466;11.066;2023-07-28T06:07:40;4.58;;;1.40;;
23346;SDS011;36852;45.466;11.066;2023-07-28T06:10:08;4.05;;;1.57;;
23346;SDS011;36852;45.466;11.066;2023-07-28T06:12:37;3.25;;;1.37;;
23346;SDS011;36852;45.466;11.066;2023-07-28T06:15:05;9.18;;;1.85;;
23346;SDS011;36852;45.466;11.066;2023-07-28T06:17:35;3.95;;;1.92;;
23346;SDS011;36852;45.466;11.066;2023-07-28T06:20:03;7.05;;;1.50;;
23346;SDS011;36852;45.466;11.066;2023-07-28T06:22:33;2.27;;;1.75;;
23346;SDS011;36852;45.466;11.066;2023-07-28T06:25:03;2.85;;;1.90;;
23346;SDS011;36852;45.466;11.066;2023-07-28T06:27:31;3.22;;;1.60;;
23346;SDS011;36852;45.466;11.066;2023-07-28T06:30:00;4.53;;;1.92;;
23346;SDS011;36852;45.466;11.066;2023-07-28T06:32:28;4.42;;;1.52;;
23346;SDS011;36852;45.466;11.066;2023-07-28T06:34:56;5.40;;;1.37;;
23346;SDS011;36852;45.466;11.066;2023-07-28T06:37:24;6.70;;;1.80;;
23346;SDS011;36852;45.466;11.066;2023-07-28T06:39:52;5.90;;;1.45;;
23346;SDS011;36852;45.466;11.066;2023-07-28T06:42:22;7.92;;;2.02;;
23346;SDS011;36852;45.466;11.066;2023-07-28T06:44:53;7.95;;;1.75;;
23346;SDS011;36852;45.466;11.066;2023-07-28T06:47:20;3.58;;;1.52;;
23346;SDS011;36852;45.466;11.066;2023-07-28T06:49:48;2.65;;;1.50;;
23346;SDS011;36852;45.466;11.066;2023-07-28T06:52:16;5.10;;;1.60;;
23346;SDS011;36852;45.466;11.066;2023-07-28T06:54:44;5.50;;;1.42;;
23346;SDS011;36852;45.466;11.066;2023-07-28T06:57:14;5.62;;;2.10;;
23346;SDS011;36852;45.466;11.066;2023-07-28T06:59:46;6.15;;;2.58;;
23346;SDS011;36852;45.466;11.066;2023-07-28T07:02:14;5.25;;;2.67;;
23346;SDS011;36852;45.466;11.066;2023-07-28T07:04:43;6.37;;;1.98;;
23346;SDS011;36852;45.466;11.066;2023-07-28T07:07:10;2.77;;;1.67;;
23346;SDS011;36852;45.466;11.066;2023-07-28T07:09:41;4.65;;;1.62;;
23346;SDS011;36852;45.466;11.066;2023-07-28T07:12:09;4.97;;;1.55;;
23346;SDS011;36852;45.466;11.066;2023-07-28T07:14:37;5.12;;;1.87;;
23346;SDS011;36852;45.466;11.066;2023-07-28T07:17:06;6.12;;;1.80;;
23346;SDS011;36852;45.466;11.066;2023-07-28T07:19:34;3.92;;;2.00;;
23346;SDS011;36852;45.466;11.066;2023-07-28T07:22:02;4.20;;;1.75;;
23346;SDS011;36852;45.466;11.066;2023-07-28T07:24:31;3.22;;;1.62;;
23346;SDS011;36852;45.466;11.066;2023-07-28T07:27:02;7.35;;;2.72;;
23346;SDS011;36852;45.466;11.066;2023-07-28T07:29:33;3.92;;;1.50;;
23346;SDS011;36852;45.466;11.066;2023-07-28T07:32:01;1.98;;;1.30;;
23346;SDS011;36852;45.466;11.066;2023-07-28T07:34:29;2.45;;;1.17;;
23346;SDS011;36852;45.466;11.066;2023-07-28T07:36:56;6.70;;;1.40;;
23346;SDS011;36852;45.466;11.066;2023-07-28T07:39:24;4.80;;;1.45;;
23346;SDS011;36852;45.466;11.066;2023-07-28T07:41:52;5.58;;;1.60;;
23346;SDS011;36852;45.466;11.066;2023-07-28T07:44:23;5.78;;;1.40;;
23346;SDS011;36852;45.466;11.066;2023-07-28T07:46:52;3.80;;;1.37;;
23346;SDS011;36852;45.466;11.066;2023-07-28T07:49:20;3.35;;;1.92;;
23346;SDS011;36852;45.466;11.066;2023-07-28T07:51:48;4.95;;;1.50;;
23346;SDS011;36852;45.466;11.066;2023-07-28T07:54:15;5.87;;;1.95;;
23346;SDS011;36852;45.466;11.066;2023-07-28T07:56:45;5.92;;;1.67;;
23346;SDS011;36852;45.466;11.066;2023-07-28T07:59:14;5.28;;;1.52;;
23346;SDS011;36852;45.466;11.066;2023-07-28T08:01:42;3.30;;;1.70;;
23346;SDS011;36852;45.466;11.066;2023-07-28T08:04:10;5.08;;;2.10;;
23346;SDS011;36852;45.466;11.066;2023-07-28T08:06:37;5.35;;;2.08;;
23346;SDS011;36852;45.466;11.066;2023-07-28T08:09:05;6.47;;;2.58;;
23346;SDS011;36852;45.466;11.066;2023-07-28T08:11:33;12.05;;;2.65;;
23346;SDS011;36852;45.466;11.066;2023-07-28T08:14:02;6.42;;;2.20;;
23346;SDS011;36852;45.466;11.066;2023-07-28T08:16:30;13.95;;;4.53;;
23346;SDS011;36852;45.466;11.066;2023-07-28T08:18:58;7.28;;;2.62;;
23346;SDS011;36852;45.466;11.066;2023-07-28T08:21:25;11.20;;;2.77;;
23346;SDS011;36852;45.466;11.066;2023-07-28T08:23:53;5.40;;;1.80;;
23346;SDS011;36852;45.466;11.066;2023-07-28T08:26:21;8.20;;;2.92;;
23346;SDS011;36852;45.466;11.066;2023-07-28T08:28:49;6.17;;;2.70;;
23346;SDS011;36852;45.466;11.066;2023-07-28T08:31:17;5.50;;;2.80;;
23346;SDS011;36852;45.466;11.066;2023-07-28T08:33:44;9.40;;;2.92;;
23346;SDS011;36852;45.466;11.066;2023-07-28T08:36:12;5.40;;;2.67;;
23346;SDS011;36852;45.466;11.066;2023-07-28T08:38:43;5.90;;;2.35;;
23346;SDS011;36852;45.466;11.066;2023-07-28T08:41:12;7.12;;;2.83;;
23346;SDS011;36852;45.466;11.066;2023-07-28T08:43:41;6.10;;;2.65;;
23346;SDS011;36852;45.466;11.066;2023-07-28T08:46:09;5.58;;;2.15;;
23346;SDS011;36852;45.466;11.066;2023-07-28T08:48:37;5.60;;;2.75;;
23346;SDS011;36852;45.466;11.066;2023-07-28T08:51:05;9.00;;;2.37;;
23346;SDS011;36852;45.466;11.066;2023-07-28T08:53:36;4.75;;;1.80;;
23346;SDS011;36852;45.466;11.066;2023-07-28T08:56:06;2.77;;;1.45;;
23346;SDS011;36852;45.466;11.066;2023-07-28T08:58:34;1.75;;;1.50;;
23346;SDS011;36852;45.466;11.066;2023-07-28T09:01:02;2.83;;;1.60;;
23346;SDS011;36852;45.466;11.066;2023-07-28T09:03:30;3.62;;;1.60;;
23346;SDS011;36852;45.466;11.066;2023-07-28T09:06:00;4.97;;;1.87;;
23346;SDS011;36852;45.466;11.066;2023-07-28T09:08:32;2.75;;;1.60;;
23346;SDS011;36852;45.466;11.066;2023-07-28T09:11:02;2.37;;;1.50;;
23346;SDS011;36852;45.466;11.066;2023-07-28T09:13:40;6.17;;;2.00;;
23346;SDS011;36852;45.466;11.066;2023-07-28T09:16:18;3.10;;;1.40;;
23346;SDS011;36852;45.466;11.066;2023-07-28T09:18:46;10.08;;;2.22;;
23346;SDS011;36852;45.466;11.066;2023-07-28T09:21:20;5.80;;;1.85;;
23346;SDS011;36852;45.466;11.066;2023-07-28T09:23:48;5.87;;;2.15;;
23346;SDS011;36852;45.466;11.066;2023-07-28T09:26:16;4.70;;;1.90;;
23346;SDS011;36852;45.466;11.066;2023-07-28T09:28:45;7.37;;;2.00;;
23346;SDS011;36852;45.466;11.066;2023-07-28T09:31:13;6.58;;;1.75;;
23346;SDS011;36852;45.466;11.066;2023-07-28T09:33:42;4.20;;;1.60;;
23346;SDS011;36852;45.466;11.066;2023-07-28T09:36:12;5.87;;;2.42;;
23346;SDS011;36852;45.466;11.066;2023-07-28T09:38:43;6.03;;;2.08;;
23346;SDS011;36852;45.466;11.066;2023-07-28T09:41:11;6.92;;;2.40;;
23346;SDS011;36852;45.466;11.066;2023-07-28T09:43:39;6.10;;;2.05;;
23346;SDS011;36852;45.466;11.066;2023-07-28T09:46:08;4.22;;;1.92;;
23346;SDS011;36852;45.466;11.066;2023-07-28T09:48:37;4.95;;;1.77;;
23346;SDS011;36852;45.466;11.066;2023-07-28T09:51:08;5.08;;;2.37;;
23346;SDS011;36852;45.466;11.066;2023-07-28T09:53:40;5.12;;;2.42;;
23346;SDS011;36852;45.466;11.066;2023-07-28T09:56:09;4.78;;;2.62;;
23346;SDS011;36852;45.466;11.066;2023-07-28T09:58:41;9.68;;;2.45;;
23346;SDS011;36852;45.466;11.066;2023-07-28T10:01:11;5.30;;;2.05;;
23346;SDS011;36852;45.466;11.066;2023-07-28T10:03:39;8.68;;;2.52;;
23346;SDS011;36852;45.466;11.066;2023-07-28T10:06:07;6.12;;;2.80;;
23346;SDS011;36852;45.466;11.066;2023-07-28T10:08:36;6.92;;;2.47;;
23346;SDS011;36852;45.466;11.066;2023-07-28T10:11:11;3.22;;;2.25;;
23346;SDS011;36852;45.466;11.066;2023-07-28T10:13:39;4.65;;;2.60;;
23346;SDS011;36852;45.466;11.066;2023-07-28T10:16:11;5.40;;;2.20;;
23346;SDS011;36852;45.466;11.066;2023-07-28T10:18:51;7.62;;;2.35;;
23346;SDS011;36852;45.466;11.066;2023-07-28T10:21:21;2.55;;;1.87;;
23346;SDS011;36852;45.466;11.066;2023-07-28T10:23:55;3.27;;;2.37;;
23346;SDS011;36852;45.466;11.066;2023-07-28T10:26:33;4.10;;;1.90;;
23346;SDS011;36852;45.466;11.066;2023-07-28T10:29:12;7.05;;;2.98;;
23346;SDS011;36852;45.466;11.066;2023-07-28T10:31:49;9.10;;;2.55;;
23346;SDS011;36852;45.466;11.066;2023-07-28T10:34:18;3.40;;;2.05;;
23346;SDS011;36852;45.466;11.066;2023-07-28T10:36:46;11.38;;;2.33;;
23346;SDS011;36852;45.466;11.066;2023-07-28T10:39:16;4.65;;;3.10;;
23346;SDS011;36852;45.466;11.066;2023-07-28T10:41:59;7.42;;;2.65;;
23346;SDS011;36852;45.466;11.066;2023-07-28T10:44:31;8.48;;;3.37;;
23346;SDS011;36852;45.466;11.066;2023-07-28T10:47:07;6.97;;;2.72;;
23346;SDS011;36852;45.466;11.066;2023-07-28T10:49:36;5.92;;;3.17;;
23346;SDS011;36852;45.466;11.066;2023-07-28T10:52:04;6.97;;;3.10;;
23346;SDS011;36852;45.466;11.066;2023-07-28T10:54:34;7.90;;;3.47;;
23346;SDS011;36852;45.466;11.066;2023-07-28T10:57:02;7.37;;;2.65;;
23346;SDS011;36852;45.466;11.066;2023-07-28T10:59:32;4.47;;;2.85;;
23346;SDS011;36852;45.466;11.066;2023-07-28T11:02:02;7.15;;;2.35;;
23346;SDS011;36852;45.466;11.066;2023-07-28T11:04:30;7.40;;;3.35;;
23346;SDS011;36852;45.466;11.066;2023-07-28T11:06:58;6.20;;;3.42;;
23346;SDS011;36852;45.466;11.066;2023-07-28T11:09:26;9.28;;;3.50;;
23346;SDS011;36852;45.466;11.066;2023-07-28T11:11:54;3.37;;;2.83;;
23346;SDS011;36852;45.466;11.066;2023-07-28T11:14:23;8.55;;;3.77;;
23346;SDS011;36852;45.466;11.066;2023-07-28T11:16:51;7.62;;;3.15;;
23346;SDS011;36852;45.466;11.066;2023-07-28T11:19:20;5.90;;;3.45;;
23346;SDS011;36852;45.466;11.066;2023-07-28T11:21:50;9.75;;;3.05;;
23346;SDS011;36852;45.466;11.066;2023-07-28T11:24:19;6.12;;;2.92;;
23346;SDS011;36852;45.466;11.066;2023-07-28T11:26:47;4.97;;;2.92;;
23346;SDS011;36852;45.466;11.066;2023-07-28T11:29:18;7.53;;;2.50;;
23346;SDS011;36852;45.466;11.066;2023-07-28T11:31:47;5.75;;;3.33;;
23346;SDS011;36852;45.466;11.066;2023-07-28T11:34:17;7.62;;;3.25;;
23346;SDS011;36852;45.466;11.066;2023-07-28T11:36:45;5.20;;;2.72;;
23346;SDS011;36852;45.466;11.066;2023-07-28T11:39:13;5.62;;;3.02;;
23346;SDS011;36852;45.466;11.066;2023-07-28T11:41:43;6.62;;;2.58;;
23346;SDS011;36852;45.466;11.066;2023-07-28T11:44:12;6.92;;;2.65;;
23346;SDS011;36852;45.466;11.066;2023-07-28T11:46:40;4.55;;;2.47;;
23346;SDS011;36852;45.466;11.066;2023-07-28T11:49:19;7.50;;;2.92;;
23346;SDS011;36852;45.466;11.066;2023-07-28T11:51:50;10.03;;;3.02;;
23346;SDS011;36852;45.466;11.066;2023-07-28T11:54:22;6.15;;;3.10;;
23346;SDS011;36852;45.466;11.066;2023-07-28T11:56:54;7.25;;;3.52;;
23346;SDS011;36852;45.466;11.066;2023-07-28T11:59:23;4.00;;;2.55;;
23346;SDS011;36852;45.466;11.066;2023-07-28T12:01:58;4.70;;;2.40;;
23346;SDS011;36852;45.466;11.066;2023-07-28T12:04:31;5.78;;;2.50;;
23346;SDS011;36852;45.466;11.066;2023-07-28T12:07:02;5.60;;;2.67;;
23346;SDS011;36852;45.466;11.066;2023-07-28T12:12:23;5.80;;;2.50;;
23346;SDS011;36852;45.466;11.066;2023-07-28T12:14:52;7.28;;;2.75;;
23346;SDS011;36852;45.466;11.066;2023-07-28T12:17:24;5.00;;;2.40;;
23346;SDS011;36852;45.466;11.066;2023-07-28T12:19:57;4.35;;;2.37;;
23346;SDS011;36852;45.466;11.066;2023-07-28T12:22:34;5.28;;;2.60;;
23346;SDS011;36852;45.466;11.066;2023-07-28T12:25:02;2.72;;;2.02;;
23346;SDS011;36852;45.466;11.066;2023-07-28T12:27:31;4.67;;;2.42;;
23346;SDS011;36852;45.466;11.066;2023-07-28T12:29:59;6.05;;;2.52;;
23346;SDS011;36852;45.466;11.066;2023-07-28T12:32:29;4.75;;;2.52;;
23346;SDS011;36852;45.466;11.066;2023-07-28T12:35:02;8.25;;;2.92;;
23346;SDS011;36852;45.466;11.066;2023-07-28T12:37:32;5.37;;;2.37;;
23346;SDS011;36852;45.466;11.066;2023-07-28T12:40:03;4.75;;;2.77;;
23346;SDS011;36852;45.466;11.066;2023-07-28T12:42:32;4.53;;;2.75;;
23346;SDS011;36852;45.466;11.066;2023-07-28T12:45:02;4.42;;;2.12;;
23346;SDS011;36852;45.466;11.066;2023-07-28T12:47:33;4.62;;;2.22;;
23346;SDS011;36852;45.466;11.066;2023-07-28T12:50:03;8.30;;;2.87;;
23346;SDS011;36852;45.466;11.066;2023-07-28T12:52:35;2.83;;;2.33;;
23346;SDS011;36852;45.466;11.066;2023-07-28T12:55:06;3.85;;;2.52;;
23346;SDS011;36852;45.466;11.066;2023-07-28T12:57:36;7.50;;;2.87;;
23346;SDS011;36852;45.466;11.066;2023-07-28T13:00:04;5.28;;;2.55;;
23346;SDS011;36852;45.466;11.066;2023-07-28T13:02:39;4.55;;;2.20;;
23346;SDS011;36852;45.466;11.066;2023-07-28T13:05:09;6.95;;;2.50;;
23346;SDS011;36852;45.466;11.066;2023-07-28T13:07:38;7.95;;;3.05;;
23346;SDS011;36852;45.466;11.066;2023-07-28T13:10:09;8.90;;;2.35;;
23346;SDS011;36852;45.466;11.066;2023-07-28T13:12:41;3.72;;;2.30;;
23346;SDS011;36852;45.466;11.066;2023-07-28T13:15:10;6.15;;;2.60;;
23346;SDS011;36852;45.466;11.066;2023-07-28T13:17:38;3.30;;;2.33;;
23346;SDS011;36852;45.466;11.066;2023-07-28T13:20:07;4.50;;;2.75;;
23346;SDS011;36852;45.466;11.066;2023-07-28T13:22:34;5.00;;;2.02;;
23346;SDS011;36852;45.466;11.066;2023-07-28T13:25:02;7.45;;;2.33;;
23346;SDS011;36852;45.466;11.066;2023-07-28T13:27:30;4.17;;;2.37;;
23346;SDS011;36852;45.466;11.066;2023-07-28T13:30:01;4.72;;;2.30;;
23346;SDS011;36852;45.466;11.066;2023-07-28T13:32:31;5.75;;;2.12;;
23346;SDS011;36852;45.466;11.066;2023-07-28T13:34:59;3.50;;;2.40;;
23346;SDS011;36852;45.466;11.066;2023-07-28T13:37:27;3.75;;;2.20;;
23346;SDS011;36852;45.466;11.066;2023-07-28T13:39:55;3.77;;;2.27;;
23346;SDS011;36852;45.466;11.066;2023-07-28T13:42:22;5.20;;;2.17;;
23346;SDS011;36852;45.466;11.066;2023-07-28T13:44:50;3.62;;;2.00;;
23346;SDS011;36852;45.466;11.066;2023-07-28T13:47:20;5.03;;;2.40;;
23346;SDS011;36852;45.466;11.066;2023-07-28T13:49:47;4.22;;;2.55;;
23346;SDS011;36852;45.466;11.066;2023-07-28T13:52:17;4.45;;;2.30;;
23346;SDS011;36852;45.466;11.066;2023-07-28T13:54:47;8.00;;;2.60;;
23346;SDS011;36852;45.466;11.066;2023-07-28T13:57:17;7.28;;;2.60;;
23346;SDS011;36852;45.466;11.066;2023-07-28T13:59:46;4.70;;;2.25;;
23346;SDS011;36852;45.466;11.066;2023-07-28T14:02:14;3.85;;;2.20;;
23346;SDS011;36852;45.466;11.066;2023-07-28T14:04:44;4.97;;;2.30;;
23346;SDS011;36852;45.466;11.066;2023-07-28T14:07:11;5.72;;;2.35;;
23346;SDS011;36852;45.466;11.066;2023-07-28T14:09:40;6.12;;;2.50;;
23346;SDS011;36852;45.466;11.066;2023-07-28T14:12:08;7.42;;;2.25;;
23346;SDS011;36852;45.466;11.066;2023-07-28T14:14:36;9.63;;;2.47;;
23346;SDS011;36852;45.466;11.066;2023-07-28T14:17:04;6.22;;;2.30;;
23346;SDS011;36852;45.466;11.066;2023-07-28T14:19:32;7.45;;;2.30;;
23346;SDS011;36852;45.466;11.066;2023-07-28T14:21:59;6.70;;;2.67;;
23346;SDS011;36852;45.466;11.066;2023-07-28T14:24:27;2.40;;;2.20;;
23346;SDS011;36852;45.466;11.066;2023-07-28T14:26:55;4.00;;;2.35;;
23346;SDS011;36852;45.466;11.066;2023-07-28T14:29:24;5.30;;;2.87;;
23346;SDS011;36852;45.466;11.066;2023-07-28T14:31:52;7.30;;;2.60;;
23346;SDS011;36852;45.466;11.066;2023-07-28T14:34:20;3.08;;;2.47;;
23346;SDS011;36852;45.466;11.066;2023-07-28T14:36:48;7.12;;;2.80;;
23346;SDS011;36852;45.466;11.066;2023-07-28T14:39:16;4.10;;;2.70;;
23346;SDS011;36852;45.466;11.066;2023-07-28T14:41:45;6.30;;;2.70;;
23346;SDS011;36852;45.466;11.066;2023-07-28T14:44:12;4.70;;;2.65;;
23346;SDS011;36852;45.466;11.066;2023-07-28T14:46:42;7.12;;;2.37;;
23346;SDS011;36852;45.466;11.066;2023-07-28T14:49:10;3.22;;;2.90;;